Terminal Aerodrome Forecast
Issued by NWS

Home | Current Version | Previous Version | Graphics & Text | Print | Product List | Glossary On
Versions: 1 2 3 4 5 6 7 8 9 10 11 12 13 14 15 16 17 18
000
FTUS43 KGRB 271700
TAFATW
TAF
KATW 271734Z 2718/2818 29011G18KT P6SM VCSH SCT040 BKN080
      TEMPO 2718/2720 3SM -TSRA BR SCT025 BKN040CB
     FM272000 35010G17KT P6SM -SHRA SCT025 BKN040
     FM280000 35012KT P6SM SCT015 BKN030
     FM280300 36011KT P6SM SCT030
     FM280600 35009KT P6SM SKC
     FM281600 36010G16KT P6SM SCT040=

USA.gov is the U.S. government's official web portal to all federal, state and local government web resources and services.